createdAt,value
2022-09-15T00:03:47.831Z,100140.97
2022-09-15T00:08:49.661Z,100140.22
2022-09-15T00:13:52.670Z,100139.91
2022-09-15T00:18:54.887Z,100146.84
2022-09-15T00:23:57.101Z,100145.50
2022-09-15T00:28:59.749Z,100152.94
2022-09-15T00:34:05.147Z,100148.97
2022-09-15T00:39:07.127Z,100145.25
2022-09-15T00:44:36.300Z,100147.06
2022-09-15T00:49:40.409Z,100145.75
2022-09-15T00:54:54.686Z,100153.47
2022-09-15T00:59:59.032Z,100152.91
2022-09-15T01:05:03.163Z,100151.34
2022-09-15T01:10:15.219Z,100143.22
2022-09-15T01:15:16.961Z,100134.69
2022-09-15T01:20:35.200Z,100131.25
2022-09-15T01:25:56.084Z,100141.53
2022-09-15T01:31:12.583Z,100136.31
2022-09-15T01:36:25.560Z,100138.16
2022-09-15T01:41:40.478Z,100137.72
2022-09-15T01:46:47.725Z,100133.69
2022-09-15T01:51:52.150Z,100141.66
2022-09-15T01:56:53.689Z,100134.13
2022-09-15T02:02:04.899Z,100142.16
2022-09-15T02:07:23.638Z,100137.03
2022-09-15T02:12:48.179Z,100136.59
2022-09-15T02:17:54.071Z,100142.16
2022-09-15T02:23:00.003Z,100150.06
2022-09-15T02:28:07.111Z,100153.03
2022-09-15T02:33:14.586Z,100146.47
2022-09-15T02:38:16.127Z,100137.97
2022-09-15T02:43:17.830Z,100143.06
2022-09-15T02:48:19.531Z,100147.81
2022-09-15T02:53:20.972Z,100148.50
2022-09-15T02:58:22.479Z,100149.16
2022-09-15T03:03:24.261Z,100152.34
2022-09-15T03:08:27.936Z,100147.00
2022-09-15T03:13:29.663Z,100145.16
2022-09-15T03:18:31.144Z,100145.88
2022-09-15T03:23:32.743Z,100150.50
2022-09-15T03:28:35.550Z,100153.94
2022-09-15T03:33:38.566Z,100152.97
2022-09-15T03:38:40.035Z,100155.16
2022-09-15T03:43:41.526Z,100161.53
2022-09-15T03:48:42.990Z,100154.31
2022-09-15T03:53:44.517Z,100155.50
2022-09-15T03:58:45.963Z,100140.84
2022-09-15T04:03:50.898Z,100134.06
2022-09-15T04:08:53.392Z,100140.16
2022-09-15T04:13:55.353Z,100143.44
2022-09-15T04:18:56.888Z,100151.56
2022-09-15T04:23:58.420Z,100151.63
2022-09-15T04:29:04.227Z,100148.81
2022-09-15T04:34:06.482Z,100156.56
2022-09-15T04:39:08.355Z,100150.81
2022-09-15T04:44:09.799Z,100153.16
2022-09-15T04:49:11.232Z,100159.22
2022-09-15T04:54:12.674Z,100152.94
2022-09-15T04:59:16.877Z,100152.75
2022-09-15T05:04:18.282Z,100162.94
2022-09-15T05:09:19.754Z,100170.81
2022-09-15T05:14:21.175Z,100175.44
2022-09-15T05:19:22.568Z,100177.84
2022-09-15T05:24:24.022Z,100186.31
2022-09-15T05:29:25.618Z,100187.72
2022-09-15T05:34:27.531Z,100199.69
2022-09-15T05:39:29.371Z,100194.31
2022-09-15T05:44:31.563Z,100190.38
2022-09-15T05:49:33.864Z,100187.63
2022-09-15T05:54:36.156Z,100194.19
2022-09-15T05:59:39.122Z,100192.66
2022-09-15T06:04:41.608Z,100207.06
2022-09-15T06:09:43.917Z,100204.44
2022-09-15T06:14:47.113Z,100205.44
2022-09-15T06:19:49.294Z,100208.50
2022-09-15T06:24:52.261Z,100213.22
2022-09-15T06:29:54.247Z,100210.91
2022-09-15T06:34:55.794Z,100209.00
2022-09-15T06:39:57.398Z,100219.28
2022-09-15T06:44:59.514Z,100228.03
2022-09-15T06:50:01.368Z,100228.72
2022-09-15T06:55:03.186Z,100229.59
2022-09-15T07:00:06.631Z,100232.28
2022-09-15T07:05:08.202Z,100240.31
2022-09-15T07:10:09.914Z,100246.03
2022-09-15T07:15:11.644Z,100266.94
2022-09-15T07:20:13.481Z,100262.81
2022-09-15T07:25:14.984Z,100261.75
2022-09-15T07:30:16.472Z,100269.88
2022-09-15T07:35:18.645Z,100276.66
2022-09-15T07:40:20.341Z,100287.97
2022-09-15T07:45:21.838Z,100283.72
2022-09-15T07:50:23.497Z,100297.91
2022-09-15T07:55:24.962Z,100298.94
2022-09-15T08:00:27.826Z,100303.13
2022-09-15T08:05:29.307Z,100310.84
2022-09-15T08:10:30.737Z,100315.44
2022-09-15T08:15:35.596Z,100316.53
2022-09-15T08:20:43.981Z,100316.03
2022-09-15T08:25:45.653Z,100330.28
2022-09-15T08:30:47.163Z,100327.53
2022-09-15T08:35:48.721Z,100328.50
2022-09-15T08:40:51.075Z,100338.28
2022-09-15T08:45:58.807Z,100340.28
2022-09-15T08:51:06.257Z,100340.03
2022-09-15T08:56:15.589Z,100357.19
2022-09-15T09:01:17.192Z,100359.72
2022-09-15T09:06:27.834Z,100367.38
2022-09-15T09:11:37.705Z,100371.22
2022-09-15T09:16:50.740Z,100366.41
2022-09-15T09:22:15.408Z,100367.59
2022-09-15T09:27:20.483Z,100361.03
2022-09-15T09:32:26.246Z,100371.00
2022-09-15T09:37:28.387Z,100368.91
2022-09-15T09:42:33.581Z,100379.38
2022-09-15T09:47:36.369Z,100373.59
2022-09-15T09:52:39.181Z,100370.81
2022-09-15T09:57:40.973Z,100370.44
2022-09-15T10:02:48.308Z,100357.59
2022-09-15T10:07:49.791Z,100362.06
2022-09-15T10:12:55.687Z,100369.88
2022-09-15T10:17:57.694Z,100376.09
2022-09-15T10:23:05.250Z,100368.56
2022-09-15T10:28:21.932Z,100365.00
2022-09-15T10:33:26.343Z,100369.31
2022-09-15T10:38:34.155Z,100375.72
2022-09-15T10:43:56.661Z,100366.13
2022-09-15T10:49:07.795Z,100360.47
2022-09-15T10:54:09.826Z,100376.41
2022-09-15T10:59:50.270Z,100367.88
2022-09-15T11:05:10.878Z,100359.16
2022-09-15T11:10:36.541Z,100377.38
2022-09-15T11:15:48.251Z,100379.09
2022-09-15T11:21:07.160Z,100387.50
2022-09-15T11:26:42.195Z,100366.72
2022-09-15T11:31:47.633Z,100372.47
2022-09-15T11:37:10.039Z,100366.47
2022-09-15T11:42:25.352Z,100369.47
2022-09-15T11:47:35.169Z,100374.09
2022-09-15T11:53:01.288Z,100375.16
2022-09-15T11:58:36.143Z,100374.78
2022-09-15T12:03:47.746Z,100379.09
2022-09-15T12:09:00.698Z,100382.97
2022-09-15T12:14:04.581Z,100366.69
2022-09-15T12:19:25.285Z,100383.72
2022-09-15T12:24:26.757Z,100391.88
2022-09-15T12:29:28.147Z,100382.75
2022-09-15T12:34:36.187Z,100389.25
2022-09-15T12:39:42.055Z,100399.56
2022-09-15T12:44:57.256Z,100407.53
2022-09-15T12:50:22.217Z,100415.38
2022-09-15T12:55:36.182Z,100413.59
2022-09-15T13:01:00.609Z,100408.31
2022-09-15T13:06:15.922Z,100415.81
2022-09-15T13:11:23.386Z,100427.56
2022-09-15T13:16:33.151Z,100423.31
2022-09-15T13:21:38.220Z,100429.44
2022-09-15T13:26:41.650Z,100413.50
2022-09-15T13:31:56.247Z,100404.19
2022-09-15T13:43:06.227Z,100393.91
2022-09-15T13:48:39.632Z,100397.19
2022-09-15T13:54:21.845Z,100388.03
2022-09-15T13:59:27.573Z,100386.78
2022-09-15T14:04:31.341Z,100394.84
2022-09-15T14:09:39.485Z,100391.09
2022-09-15T14:14:44.536Z,100387.34
2022-09-15T14:19:54.508Z,100386.06
2022-09-15T14:24:57.487Z,100387.84
2022-09-15T14:30:03.301Z,100386.16
2022-09-15T14:35:08.666Z,100389.84
2022-09-15T14:40:24.798Z,100392.25
2022-09-15T14:51:08.575Z,100387.25
2022-09-15T14:56:18.338Z,100397.56
2022-09-15T15:01:24.901Z,100394.03
2022-09-15T15:06:35.264Z,100381.94
2022-09-15T15:11:39.124Z,100383.97
2022-09-15T15:16:57.514Z,100385.19
2022-09-15T15:22:14.705Z,100392.91
2022-09-15T15:27:34.809Z,100389.72
2022-09-15T15:32:36.812Z,100386.69
2022-09-15T15:37:38.408Z,100394.69
2022-09-15T15:42:57.862Z,100387.88
2022-09-15T15:48:03.751Z,100391.53
2022-09-15T15:53:05.264Z,100396.00
2022-09-15T15:58:07.383Z,100400.94
2022-09-15T16:03:08.974Z,100407.94
2022-09-15T16:08:19.407Z,100405.25
2022-09-15T16:13:22.245Z,100395.22
2022-09-15T16:18:24.039Z,100403.91
2022-09-15T16:23:25.660Z,100395.81
2022-09-15T16:28:28.701Z,100400.66
2022-09-15T16:33:32.519Z,100393.91
2022-09-15T16:38:37.948Z,100395.25
2022-09-15T16:43:39.435Z,100399.09
2022-09-15T16:48:42.779Z,100409.28
2022-09-15T16:53:47.366Z,100416.38
2022-09-15T16:58:48.829Z,100410.44
2022-09-15T17:03:50.275Z,100414.84
2022-09-15T17:08:51.759Z,100421.38
2022-09-15T17:13:53.391Z,100429.28
2022-09-15T17:18:54.901Z,100422.75
2022-09-15T17:23:56.354Z,100430.22
2022-09-15T17:28:58.198Z,100433.09
2022-09-15T17:34:00.780Z,100437.59
2022-09-15T17:39:02.185Z,100437.31
2022-09-15T17:44:05.199Z,100428.94
2022-09-15T17:49:06.681Z,100430.75
2022-09-15T17:54:10.897Z,100434.00
2022-09-15T17:59:15.718Z,100434.97
2022-09-15T18:04:17.892Z,100437.97
2022-09-15T18:09:19.381Z,100442.41
2022-09-15T18:14:20.843Z,100434.28
2022-09-15T18:19:22.294Z,100433.44
2022-09-15T18:24:23.752Z,100427.38
2022-09-15T18:29:25.843Z,100444.06
2022-09-15T18:34:27.344Z,100455.44
2022-09-15T18:39:29.372Z,100456.00
2022-09-15T18:44:30.865Z,100458.44
2022-09-15T18:49:32.378Z,100455.31
2022-09-15T18:54:36.202Z,100469.28
2022-09-15T18:59:38.743Z,100474.75
2022-09-15T19:04:41.379Z,100485.06
2022-09-15T19:09:42.835Z,100486.88
2022-09-15T19:14:46.114Z,100482.97
2022-09-15T19:19:48.450Z,100488.59
2022-09-15T19:24:49.959Z,100495.63
2022-09-15T19:29:51.490Z,100500.75
2022-09-15T19:34:53.065Z,100508.97
2022-09-15T19:39:54.771Z,100500.00
2022-09-15T19:44:56.284Z,100499.47
2022-09-15T19:49:58.085Z,100498.75
2022-09-15T19:54:59.511Z,100501.44
2022-09-15T20:00:01.111Z,100503.34
2022-09-15T20:05:02.668Z,100514.66
2022-09-15T20:10:04.430Z,100514.84
2022-09-15T20:15:06.879Z,100519.84
2022-09-15T20:20:10.636Z,100528.38
2022-09-15T20:25:12.149Z,100533.22
2022-09-15T20:30:14.208Z,100528.56
2022-09-15T20:35:15.733Z,100538.44
2022-09-15T20:40:17.504Z,100547.91
2022-09-15T20:45:18.899Z,100545.06
2022-09-15T20:50:20.443Z,100544.19
2022-09-15T20:55:21.875Z,100548.84
2022-09-15T21:00:24.023Z,100545.84
2022-09-15T21:05:25.931Z,100543.00
2022-09-15T21:10:27.398Z,100545.53
2022-09-15T21:15:29.321Z,100539.84
2022-09-15T21:20:30.746Z,100543.00
2022-09-15T21:25:32.343Z,100541.91
2022-09-15T21:30:33.746Z,100553.47
2022-09-15T21:35:35.223Z,100556.09
2022-09-15T21:40:36.763Z,100556.41
2022-09-15T21:45:38.312Z,100560.69
2022-09-15T21:50:50.196Z,100561.94
2022-09-15T21:55:52.399Z,100558.22
2022-09-15T22:00:53.994Z,100565.16
2022-09-15T22:05:56.577Z,100576.88
2022-09-15T22:11:01.198Z,100580.34
2022-09-15T22:16:06.503Z,100582.34
2022-09-15T22:21:18.030Z,100577.44
2022-09-15T22:26:22.508Z,100575.31
2022-09-15T22:31:24.960Z,100563.56
2022-09-15T22:36:29.903Z,100557.47
2022-09-15T22:41:35.210Z,100567.75
2022-09-15T22:46:36.749Z,100562.53
2022-09-15T22:51:38.144Z,100565.16
2022-09-15T22:56:39.646Z,100565.50
2022-09-15T23:01:41.126Z,100573.13
2022-09-15T23:06:42.778Z,100563.34
2022-09-15T23:11:44.410Z,100562.41
2022-09-15T23:16:46.133Z,100555.75
2022-09-15T23:21:47.948Z,100557.69
2022-09-15T23:26:49.568Z,100558.50
2022-09-15T23:31:51.065Z,100551.06
2022-09-15T23:36:52.763Z,100547.63
2022-09-15T23:41:54.316Z,100555.03
2022-09-15T23:46:56.179Z,100552.84
2022-09-15T23:51:58.880Z,100541.09
2022-09-15T23:57:00.381Z,100533.16
